Time;durP1;ratioP1;P1;durP2;ratioP2;P2;SDS_P1;SDS_P2;PMS_P1;PMS_P2;Temp;Humidity;BMP_temperature;BMP_pressure;BME280_temperature;BME280_humidity;BME280_pressure;Samples;Min_cycle;Max_cycle;Signal;HPM_P1;HPM_P2
2022/02/14 00:00:06;;;;;;;16.30;9.08;;;;;;;-0.08;68.15;100366.70;1808488;79;20949;-38
2022/02/14 00:02:36;;;;;;;11.93;8.68;;;;;;;-0.10;68.13;100362.97;1795061;79;20977;-38
2022/02/14 00:05:03;;;;;;;16.10;9.20;;;;;;;-0.08;68.13;100360.84;1809535;78;21060;-38
2022/02/14 00:07:31;;;;;;;15.03;9.70;;;;;;;-0.07;68.09;100364.31;1791778;79;21052;-38
2022/02/14 00:12:47;;;;;;;16.05;9.65;;;;;;;-0.04;68.07;100363.77;1843039;76;22530;-37
2022/02/14 00:15:16;;;;;;;16.25;9.18;;;;;;;-0.16;68.23;100360.05;1830144;77;20945;-37
2022/02/14 00:17:42;;;;;;;14.28;8.98;;;;;;;-0.13;68.15;100363.50;1813148;79;22030;-37
2022/02/14 00:20:11;;;;;;;15.98;9.93;;;;;;;-0.10;68.12;100368.85;1802259;78;20958;-37
2022/02/14 00:22:40;;;;;;;13.32;9.13;;;;;;;-0.11;68.17;100367.25;1807855;78;20874;-37
2022/02/14 00:25:08;;;;;;;17.17;9.15;;;;;;;-0.14;68.15;100361.09;1816086;78;20933;-37
2022/02/14 00:27:35;;;;;;;17.50;9.55;;;;;;;-0.18;68.22;100351.50;1783030;80;21016;-37
2022/02/14 00:30:04;;;;;;;14.25;9.00;;;;;;;-0.20;68.27;100350.18;1739234;80;21563;-37
2022/02/14 00:32:32;;;;;;;15.00;10.15;;;;;;;-0.19;68.23;100351.75;1701133;80;20980;-37
2022/02/14 00:34:58;;;;;;;16.12;10.25;;;;;;;-0.20;68.21;100350.98;1767650;80;21080;-37
2022/02/14 00:37:25;;;;;;;16.10;9.80;;;;;;;-0.24;68.28;100339.78;1752010;81;20995;-37
2022/02/14 00:39:51;;;;;;;15.78;9.20;;;;;;;-0.25;68.30;100344.31;1742899;82;21027;-37
2022/02/14 00:42:18;;;;;;;15.50;9.55;;;;;;;-0.29;68.46;100340.55;1762609;80;21034;-37
2022/02/14 00:44:45;;;;;;;14.87;9.35;;;;;;;-0.31;68.45;100336.56;1735224;81;21555;-37
2022/02/14 00:47:11;;;;;;;14.63;9.20;;;;;;;-0.33;68.39;100338.67;1780096;80;20969;-37
2022/02/14 00:49:38;;;;;;;15.60;9.58;;;;;;;-0.30;68.41;100340.83;1747423;80;21008;-37
2022/02/14 00:52:06;;;;;;;11.73;8.68;;;;;;;-0.25;68.26;100342.17;1782532;79;21522;-37
2022/02/14 00:54:32;;;;;;;14.85;8.55;;;;;;;-0.24;68.12;100339.78;1797952;79;21108;-37
2022/02/14 00:56:59;;;;;;;13.93;8.30;;;;;;;-0.22;68.01;100333.64;1762480;81;21527;-37
2022/02/14 00:59:28;;;;;;;14.63;8.83;;;;;;;-0.22;67.91;100334.97;1758010;81;21019;-37
2022/02/14 01:01:54;;;;;;;13.55;8.55;;;;;;;-0.20;67.85;100330.20;1747985;80;20933;-37
2022/02/14 01:04:21;;;;;;;13.25;9.13;;;;;;;-0.24;67.84;100337.12;1757846;81;21025;-37
2022/02/14 01:06:48;;;;;;;14.98;9.18;;;;;;;-0.25;67.79;100333.66;1747547;82;21598;-37
2022/02/14 01:09:14;;;;;;;13.50;8.55;;;;;;;-0.28;67.87;100334.69;1765450;80;20957;-37
2022/02/14 01:11:41;;;;;;;13.90;9.43;;;;;;;-0.28;67.84;100327.50;1744680;81;20973;-37
2022/02/14 01:14:08;;;;;;;15.63;9.33;;;;;;;-0.30;67.88;100328.84;1771942;79;21037;-37
2022/02/14 01:16:34;;;;;;;17.90;9.95;;;;;;;-0.32;67.80;100325.09;1783086;79;21011;-37
2022/02/14 01:19:01;;;;;;;15.35;9.63;;;;;;;-0.37;67.90;100322.42;1762978;79;21763;-37
2022/02/14 01:21:27;;;;;;;15.25;9.05;;;;;;;-0.38;67.95;100324.81;1802199;79;21460;-37
2022/02/14 01:23:54;;;;;;;15.80;8.93;;;;;;;-0.41;67.96;100320.02;1794898;79;21000;-37
2022/02/14 01:26:20;;;;;;;14.58;8.83;;;;;;;-0.37;67.95;100325.63;1802879;79;20941;-37
2022/02/14 01:28:47;;;;;;;16.37;8.68;;;;;;;-0.38;67.90;100318.69;1798577;79;21531;-37
2022/02/14 01:31:13;;;;;;;15.35;8.55;;;;;;;-0.39;67.88;100315.77;1804218;79;21669;-37
2022/02/14 01:33:40;;;;;;;13.55;9.20;;;;;;;-0.39;67.90;100311.78;1802531;79;20996;-37
2022/02/14 01:36:07;;;;;;;16.57;9.08;;;;;;;-0.38;67.81;100303.50;1800463;79;20984;-37
2022/02/14 01:38:34;;;;;;;13.40;8.73;;;;;;;-0.40;67.89;100303.52;1801614;79;21041;-38
2022/02/14 01:41:00;;;;;;;13.25;8.68;;;;;;;-0.41;67.81;100304.57;1800518;79;21550;-37
2022/02/14 01:43:27;;;;;;;15.75;8.83;;;;;;;-0.41;67.80;100311.23;1799256;79;21129;-37
2022/02/14 01:45:53;;;;;;;15.08;8.58;;;;;;;-0.41;67.74;100301.37;1783224;79;20953;-37
2022/02/14 01:48:20;;;;;;;12.82;8.75;;;;;;;-0.38;67.60;100305.36;1791644;80;20944;-37
2022/02/14 01:50:47;;;;;;;13.48;8.48;;;;;;;-0.40;67.59;100300.32;1775104;79;21022;-37
2022/02/14 01:53:16;;;;;;;14.15;8.25;;;;;;;-0.41;67.55;100296.05;1802128;79;21520;-37
2022/02/14 01:55:42;;;;;;;12.15;8.35;;;;;;;-0.44;67.57;100296.03;1804987;79;21175;-37
2022/02/14 01:58:09;;;;;;;14.65;7.95;;;;;;;-0.42;67.54;100289.64;1797029;79;20954;-37
2022/02/14 02:00:37;;;;;;;13.72;8.78;;;;;;;-0.45;67.54;100286.47;1804573;79;20946;-37
2022/02/14 02:03:04;;;;;;;13.18;8.60;;;;;;;-0.46;67.51;100280.86;1793517;79;21039;-37
2022/02/14 02:05:31;;;;;;;16.12;8.53;;;;;;;-0.52;67.64;100280.58;1789869;79;21084;-37
2022/02/14 02:07:58;;;;;;;14.95;8.73;;;;;;;-0.55;67.65;100274.45;1764530;81;21948;-37
2022/02/14 02:10:25;;;;;;;13.03;8.10;;;;;;;-0.57;67.80;100279.23;1763971;81;20983;-37
2022/02/14 02:12:56;;;;;;;13.58;8.60;;;;;;;-0.57;67.75;100265.92;1769262;80;21013;-38
2022/02/14 02:15:23;;;;;;;;;;;;;;;-0.59;67.81;100274.72;1732216;80;21061;-37
2022/02/14 02:17:50;;;;;;;12.20;7.42;;;;;;;-0.56;67.74;100274.71;1746024;82;20166;-37
2022/02/14 02:20:18;;;;;;;13.65;8.35;;;;;;;-0.60;67.87;100270.45;1773360;80;21149;-37
2022/02/14 02:22:46;;;;;;;14.05;8.58;;;;;;;-0.54;67.73;100264.61;1760842;80;21031;-37
2022/02/14 02:25:13;;;;;;;20.15;8.05;;;;;;;-0.52;67.58;100271.25;1754241;80;21056;-37
2022/02/14 02:27:42;;;;;;;11.97;7.58;;;;;;;-0.52;67.45;100265.93;1781083;80;21473;-37
2022/02/14 02:30:14;;;;;;;11.05;8.13;;;;;;;-0.53;67.34;100259.00;1776751;79;21034;-37
2022/02/14 02:32:41;;;;;;;14.55;8.53;;;;;;;-0.54;67.37;100254.76;1799966;79;21111;-37
2022/02/14 02:35:08;;;;;;;12.33;7.70;;;;;;;-0.53;67.31;100256.33;1785995;79;21032;-37
2022/02/14 02:37:34;;;;;;;14.15;7.85;;;;;;;-0.53;67.34;100261.66;1728035;80;21606;-37
2022/02/14 02:40:02;;;;;;;12.50;8.00;;;;;;;-0.50;67.28;100256.35;1781153;79;20976;-37
2022/02/14 02:42:29;;;;;;;14.87;8.18;;;;;;;-0.48;67.17;100256.88;1793272;79;21084;-37
2022/02/14 02:44:55;;;;;;;14.83;7.87;;;;;;;-0.49;67.09;100256.09;1803201;79;21858;-37
2022/02/14 02:47:23;;;;;;;13.15;8.23;;;;;;;-0.47;67.09;100251.29;1800995;79;21510;-37
2022/02/14 02:49:50;;;;;;;13.55;7.78;;;;;;;-0.45;66.93;100246.51;1772448;80;21084;-37
2022/02/14 02:52:18;;;;;;;15.15;8.20;;;;;;;-0.51;66.97;100252.89;1736388;80;20985;-37
2022/02/14 02:54:45;;;;;;;14.30;8.10;;;;;;;-0.54;67.06;100248.10;1750722;80;21028;-37
2022/02/14 02:57:12;;;;;;;15.23;7.60;;;;;;;-0.58;67.22;100243.01;1777056;79;21842;-37
2022/02/14 02:59:38;;;;;;;13.08;7.85;;;;;;;-0.57;67.16;100247.28;1745061;82;20997;-37
2022/02/14 03:02:06;;;;;;;12.75;8.00;;;;;;;-0.61;67.19;100243.55;1737422;80;21104;-37
2022/02/14 03:04:34;;;;;;;13.28;7.90;;;;;;;-0.63;67.19;100243.56;1702834;83;21006;-37
2022/02/14 03:07:00;;;;;;;14.05;8.15;;;;;;;-0.68;67.26;100241.69;1742456;80;21069;-37
2022/02/14 03:09:27;;;;;;;13.08;8.05;;;;;;;-0.70;67.32;100241.14;1742972;80;21159;-37
2022/02/14 03:11:54;;;;;;;14.33;7.55;;;;;;;-0.70;67.30;100239.81;1753357;80;21080;-37
2022/02/14 03:14:21;;;;;;;12.95;8.68;;;;;;;-0.71;67.40;100246.19;1754874;80;20956;-37
2022/02/14 03:16:48;;;;;;;13.13;8.20;;;;;;;-0.68;67.30;100248.88;1719293;82;21020;-37
2022/02/14 03:19:15;;;;;;;13.00;8.25;;;;;;;-0.69;67.39;100244.61;1773203;80;21013;-37
2022/02/14 03:21:42;;;;;;;13.70;8.18;;;;;;;-0.68;67.46;100251.01;1778853;80;21122;-37
2022/02/14 03:24:08;;;;;;;12.43;7.55;;;;;;;-0.69;67.51;100247.27;1801826;79;21503;-37
2022/02/14 03:26:36;;;;;;;13.45;7.92;;;;;;;-0.72;67.56;100241.92;1780718;79;21574;-37
2022/02/14 03:29:03;;;;;;;12.90;7.97;;;;;;;-0.77;67.69;100244.57;1774640;80;20989;-37
2022/02/14 03:31:30;;;;;;;13.98;8.00;;;;;;;-0.76;67.70;100244.84;1773362;80;21060;-37
2022/02/14 03:33:57;;;;;;;13.45;8.33;;;;;;;-0.81;67.79;100242.17;1779144;79;21555;-37
2022/02/14 03:36:24;;;;;;;12.55;7.75;;;;;;;-0.80;67.80;100241.11;1778446;80;20992;-37
2022/02/14 03:38:50;;;;;;;14.68;8.40;;;;;;;-0.82;67.82;100238.46;1771847;80;20973;-37
2022/02/14 03:41:18;;;;;;;15.63;8.55;;;;;;;-0.81;67.77;100232.85;1777300;80;21625;-37
2022/02/14 03:43:45;;;;;;;16.67;8.25;;;;;;;-0.82;67.79;100228.58;1772734;80;21498;-37
2022/02/14 03:46:12;;;;;;;12.82;8.03;;;;;;;-0.83;67.86;100232.86;1783955;79;21218;-38
2022/02/14 03:48:39;;;;;;;11.57;7.30;;;;;;;-0.86;67.88;100236.83;1785863;79;20925;-37
2022/02/14 03:51:05;;;;;;;12.65;7.85;;;;;;;-0.87;67.87;100236.56;1770102;80;21009;-37
2022/02/14 03:53:32;;;;;;;14.25;7.87;;;;;;;-0.87;67.86;100228.05;1780085;80;21080;-37
2022/02/14 03:55:58;;;;;;;12.78;8.38;;;;;;;-0.87;67.85;100221.39;1774974;80;21069;-37
2022/02/14 03:58:27;;;;;;;13.03;8.00;;;;;;;-0.84;67.75;100220.61;1777970;78;21151;-37
2022/02/14 04:00:54;;;;;;;12.65;7.72;;;;;;;-0.82;67.70;100220.59;1790390;79;21567;-37
2022/02/14 04:03:20;;;;;;;16.70;7.92;;;;;;;-0.80;67.62;100215.83;1784412;79;20971;-37
2022/02/14 04:05:49;;;;;;;14.53;7.53;;;;;;;-0.81;67.63;100224.87;1779850;80;21558;-37
2022/02/14 04:08:15;;;;;;;14.93;7.80;;;;;;;-0.80;67.57;100221.15;1781149;80;21794;-37
2022/02/14 04:10:43;;;;;;;13.15;7.75;;;;;;;-0.80;67.61;100218.48;1779333;79;21510;-37
2022/02/14 04:13:10;;;;;;;11.78;7.55;;;;;;;-0.78;67.49;100224.36;1790385;79;21053;-37
2022/02/14 04:15:38;;;;;;;14.33;7.70;;;;;;;-0.81;67.47;100218.21;1760630;80;20947;-37
2022/02/14 04:18:08;;;;;;;13.43;7.62;;;;;;;-0.84;67.50;100216.61;1744518;81;21203;-37
2022/02/14 04:20:36;;;;;;;13.15;7.45;;;;;;;-0.87;67.54;100224.58;1759425;80;21540;-37
2022/02/14 04:23:03;;;;;;;12.50;7.72;;;;;;;-0.89;67.57;100217.41;1782913;80;21947;-37
2022/02/14 04:25:31;;;;;;;11.22;7.17;;;;;;;-0.89;67.57;100214.22;1754593;81;21629;-37
2022/02/14 04:27:58;;;;;;;13.55;7.87;;;;;;;-0.88;67.60;100221.67;1755264;81;21100;-37
2022/02/14 04:30:29;;;;;;;13.62;8.00;;;;;;;-0.86;67.55;100212.88;1801702;79;21540;-37
2022/02/14 04:32:53;;;;;;;10.70;7.20;;;;;;;-0.89;67.58;100214.22;1804555;79;21005;-37
2022/02/14 04:35:19;;;;;;;13.58;8.10;;;;;;;-0.89;67.54;100216.08;1799012;78;21159;-37
2022/02/14 04:37:46;;;;;;;13.38;8.15;;;;;;;-0.91;67.57;100217.66;1812426;78;20957;-37
2022/02/14 04:40:13;;;;;;;16.25;7.83;;;;;;;-0.91;67.53;100213.67;1805175;79;20917;-37
2022/02/14 04:42:41;;;;;;;11.65;7.65;;;;;;;-0.88;67.42;100217.69;1804471;79;21025;-37
2022/02/14 04:45:09;;;;;;;13.20;7.62;;;;;;;-0.90;67.49;100221.13;1804460;78;21009;-37
2022/02/14 04:47:36;;;;;;;15.30;7.92;;;;;;;-0.89;67.51;100221.40;1787057;79;21116;-37
2022/02/14 04:50:04;;;;;;;14.58;7.58;;;;;;;-0.87;67.45;100221.39;1790937;79;21543;-37
2022/02/14 04:52:30;;;;;;;11.73;7.80;;;;;;;-0.89;67.49;100218.73;1783691;79;21027;-37
2022/02/14 04:54:57;;;;;;;12.33;6.97;;;;;;;-0.96;67.67;100216.31;1785625;79;21013;-37
2022/02/14 04:57:23;;;;;;;13.18;7.95;;;;;;;-0.94;67.73;100221.38;1804869;79;20993;-37
2022/02/14 04:59:50;;;;;;;16.12;8.25;;;;;;;-0.96;67.82;100226.96;1800355;78;21094;-37
2022/02/14 05:02:18;;;;;;;11.68;7.28;;;;;;;-0.95;67.88;100227.77;1794078;78;20981;-37
2022/02/14 05:04:45;;;;;;;15.38;7.83;;;;;;;-0.96;67.90;100230.95;1802132;78;21503;-37
2022/02/14 05:07:12;;;;;;;13.98;7.90;;;;;;;-0.95;67.94;100229.90;1768512;81;21081;-37
2022/02/14 05:09:39;;;;;;;15.05;8.03;;;;;;;-0.94;67.97;100238.16;1768442;81;21009;-37
2022/02/14 05:12:08;;;;;;;14.95;7.87;;;;;;;-0.89;67.89;100242.70;1769561;80;21133;-38
2022/02/14 05:14:35;;;;;;;12.33;7.50;;;;;;;-0.88;67.80;100245.62;1815156;79;21483;-37
2022/02/14 05:17:02;;;;;;;12.78;7.70;;;;;;;-0.87;67.70;100242.69;1814504;77;21491;-37
2022/02/14 05:19:29;;;;;;;12.43;8.33;;;;;;;-0.82;67.60;100249.88;1826989;77;20945;-37
2022/02/14 05:21:57;;;;;;;13.53;7.75;;;;;;;-0.80;67.54;100250.43;1800843;77;21060;-37
2022/02/14 05:24:23;;;;;;;12.23;8.03;;;;;;;-0.81;67.52;100243.50;1813329;78;21138;-37
2022/02/14 05:26:50;;;;;;;14.13;8.20;;;;;;;-0.85;67.62;100250.42;1808331;78;20968;-37
2022/02/14 05:29:17;;;;;;;12.35;7.60;;;;;;;-0.87;67.59;100254.66;1803417;79;20933;-37
2022/02/14 05:31:43;;;;;;;12.10;7.62;;;;;;;-0.91;67.77;100252.79;1783640;79;21005;-37
2022/02/14 05:34:13;;;;;;;13.75;7.85;;;;;;;-0.93;67.89;100268.23;1752899;80;21476;-37
2022/02/14 05:36:41;;;;;;;13.25;8.25;;;;;;;-0.96;68.03;100273.53;1813818;78;21506;-37
2022/02/14 05:39:09;;;;;;;12.80;7.40;;;;;;;-0.95;68.08;100281.80;1813533;78;21502;-37
2022/02/14 05:41:36;;;;;;;14.13;8.10;;;;;;;-0.92;68.06;100280.48;1816326;78;21524;-37
2022/02/14 05:44:04;;;;;;;15.15;8.00;;;;;;;-0.88;67.95;100278.91;1817912;78;21011;-37
2022/02/14 05:46:33;;;;;;;14.55;7.87;;;;;;;-0.82;67.80;100281.05;1799675;77;21061;-37
2022/02/14 05:49:00;;;;;;;13.60;8.15;;;;;;;-0.79;67.67;100282.66;1812999;77;21513;-37
2022/02/14 05:51:27;;;;;;;13.48;8.00;;;;;;;-0.75;67.59;100286.92;1819927;78;21040;-37
2022/02/14 05:53:53;;;;;;;14.10;7.92;;;;;;;-0.78;67.60;100292.77;1822039;78;21060;-37
2022/02/14 05:56:21;;;;;;;14.83;8.18;;;;;;;-0.79;67.69;100293.30;1821790;78;21020;-37
2022/02/14 05:58:48;;;;;;;15.50;8.28;;;;;;;-0.83;67.88;100294.89;1812899;78;21057;-37
2022/02/14 06:01:14;;;;;;;16.37;8.30;;;;;;;-0.84;67.93;100295.95;1811140;78;21864;-36
2022/02/14 06:03:41;;;;;;;14.90;8.03;;;;;;;-0.86;68.03;100295.39;1815535;79;20964;-36
2022/02/14 06:06:08;;;;;;;12.60;8.28;;;;;;;-0.83;68.13;100309.53;1812501;78;21007;-35
2022/02/14 06:08:34;;;;;;;15.10;8.18;;;;;;;-0.81;68.21;100304.73;1815715;78;21016;-35
2022/02/14 06:11:02;;;;;;;13.30;8.08;;;;;;;-0.75;68.30;100309.55;1781516;80;21084;-35
2022/02/14 06:13:30;;;;;;;12.43;7.78;;;;;;;-0.75;68.34;100310.34;1784046;80;21136;-35
2022/02/14 06:15:58;;;;;;;14.05;8.50;;;;;;;-0.70;68.31;100313.03;1786562;78;20986;-35
2022/02/14 06:18:25;;;;;;;18.27;8.10;;;;;;;-0.68;68.27;100306.12;1793026;79;21038;-35
2022/02/14 06:20:53;;;;;;;11.95;7.83;;;;;;;-0.71;68.44;100310.09;1768818;81;21034;-35
2022/02/14 06:23:20;;;;;;;12.88;8.28;;;;;;;-0.67;68.44;100309.83;1756503;80;21057;-36
2022/02/14 06:25:47;;;;;;;17.80;7.92;;;;;;;-0.67;68.63;100311.16;1726238;81;21113;-35
2022/02/14 06:28:14;;;;;;;19.40;9.15;;;;;;;-0.62;68.61;100315.70;1724829;83;20933;-35
2022/02/14 06:30:45;;;;;;;12.23;8.10;;;;;;;-0.59;68.57;100314.67;1724782;83;21106;-35
2022/02/14 06:33:09;;;;;;;15.60;8.55;;;;;;;-0.55;68.58;100310.94;1780268;78;21032;-35
2022/02/14 06:35:36;;;;;;;12.53;7.92;;;;;;;-0.52;68.52;100307.73;1821536;78;21135;-35
2022/02/14 06:38:02;;;;;;;17.15;8.38;;;;;;;-0.54;68.58;100296.56;1812984;79;21344;-35
2022/02/14 06:40:31;;;;;;;14.38;8.70;;;;;;;-0.51;68.73;100293.37;1812283;79;21514;-35
2022/02/14 06:42:57;;;;;;;12.07;7.70;;;;;;;-0.49;68.73;100296.58;1793856;79;22034;-36
2022/02/14 06:45:24;;;;;;;13.40;7.97;;;;;;;-0.46;68.58;100293.38;1781286;79;21035;-35
2022/02/14 06:47:52;;;;;;;13.50;8.80;;;;;;;-0.47;68.54;100297.91;1803482;78;21001;-35
2022/02/14 06:50:18;;;;;;;16.82;8.85;;;;;;;-0.44;68.54;100297.36;1807954;77;21255;-36
2022/02/14 06:52:46;;;;;;;14.60;8.88;;;;;;;-0.41;68.54;100292.59;1806943;79;21025;-36
2022/02/14 06:55:13;;;;;;;16.65;8.93;;;;;;;-0.44;68.64;100293.92;1808017;78;20945;-36
2022/02/14 06:57:39;;;;;;;21.57;8.78;;;;;;;-0.41;68.56;100290.72;1787139;79;21530;-35
2022/02/14 07:00:10;;;;;;;17.60;9.03;;;;;;;-0.41;68.64;100303.23;1783282;79;21076;-35
2022/02/14 07:02:37;;;;;;;15.35;8.70;;;;;;;-0.38;68.65;100286.72;1809562;78;21122;-36
2022/02/14 07:05:05;;;;;;;17.65;8.75;;;;;;;-0.33;68.56;100305.37;1807573;77;21021;-35
2022/02/14 07:07:32;;;;;;;14.20;8.20;;;;;;;-0.35;68.44;100295.53;1797164;79;21015;-35
2022/02/14 07:09:59;;;;;;;15.88;8.73;;;;;;;-0.31;68.40;100286.74;1819962;78;21495;-36
2022/02/14 07:12:26;;;;;;;16.10;8.48;;;;;;;-0.34;68.46;100295.28;1781015;78;21088;-35
2022/02/14 07:14:53;;;;;;;16.15;9.20;;;;;;;-0.31;68.54;100292.60;1778808;79;21161;-35
2022/02/14 07:17:20;;;;;;;14.73;8.30;;;;;;;-0.29;68.55;100297.14;1797856;79;20913;-35
2022/02/14 07:19:46;;;;;;;14.73;7.87;;;;;;;-0.25;68.62;100292.88;1792512;79;21032;-35
2022/02/14 07:22:13;;;;;;;15.45;9.20;;;;;;;-0.24;68.36;100311.81;1781223;78;21025;-36
2022/02/14 07:24:40;;;;;;;16.80;8.70;;;;;;;-0.21;68.60;100287.28;1800501;79;21017;-35
2022/02/14 07:27:06;;;;;;;11.75;8.00;;;;;;;-0.18;68.45;100292.07;1803827;79;21112;-35
2022/02/14 07:29:34;;;;;;;16.40;8.53;;;;;;;-0.07;68.22;100280.36;1780007;79;20957;-35
2022/02/14 07:32:01;;;;;;;12.85;8.40;;;;;;;-0.04;68.25;100285.95;1773210;79;22110;-35
2022/02/14 07:34:29;;;;;;;14.50;8.33;;;;;;;0.04;68.28;100283.83;1800024;79;21012;-35
2022/02/14 07:37:00;;;;;;;15.63;8.65;;;;;;;0.03;67.76;100284.36;1793436;78;21081;-35
2022/02/14 07:39:24;;;;;;;14.43;8.45;;;;;;;0.11;68.29;100283.81;1782443;79;21464;-35
2022/02/14 07:41:51;;;;;;;13.98;7.17;;;;;;;0.21;68.33;100282.47;1802261;79;21021;-36
2022/02/14 07:44:18;;;;;;;15.95;8.50;;;;;;;0.32;68.02;100279.27;1793975;79;21029;-36
2022/02/14 07:46:45;;;;;;;16.02;7.97;;;;;;;0.43;67.55;100280.32;1799960;78;21081;-36
2022/02/14 07:49:11;;;;;;;14.00;7.65;;;;;;;0.50;67.27;100282.69;1774350;78;21483;-36
2022/02/14 07:51:39;;;;;;;12.05;7.50;;;;;;;0.60;66.59;100283.20;1789562;79;21600;-35
2022/02/14 07:54:05;;;;;;;10.23;7.45;;;;;;;0.70;66.35;100291.19;1804105;79;20957;-35
2022/02/14 07:56:33;;;;;;;13.48;8.10;;;;;;;0.78;66.32;100282.61;1804268;79;21020;-35
2022/02/14 07:59:00;;;;;;;12.85;8.30;;;;;;;0.94;66.15;100290.03;1799649;79;21055;-36
2022/02/14 08:01:26;;;;;;;10.93;7.30;;;;;;;1.06;66.13;100288.66;1792977;79;21008;-35
2022/02/14 08:03:53;;;;;;;12.90;7.25;;;;;;;1.22;64.55;100296.84;1792013;79;21750;-36
2022/02/14 08:06:19;;;;;;;13.55;7.75;;;;;;;1.35;64.07;100282.11;1824443;78;21025;-35
2022/02/14 08:08:46;;;;;;;16.67;8.00;;;;;;;1.48;64.34;100280.69;1802092;78;21014;-36
2022/02/14 08:11:14;;;;;;;13.65;7.58;;;;;;;1.65;64.41;100290.45;1794585;79;21035;-36
2022/02/14 08:13:40;;;;;;;16.25;7.85;;;;;;;1.83;63.22;100299.17;1825864;77;21056;-36
2022/02/14 08:16:07;;;;;;;15.45;8.70;;;;;;;1.97;61.91;100293.45;1819121;77;21119;-35
2022/02/14 08:18:36;;;;;;;13.40;7.47;;;;;;;2.09;61.97;100302.42;1808373;78;20929;-36
2022/02/14 08:21:03;;;;;;;13.55;7.37;;;;;;;2.19;61.10;100295.12;1785325;79;20974;-36
2022/02/14 08:23:30;;;;;;;11.63;7.78;;;;;;;2.31;61.22;100293.95;1814047;79;21028;-36
2022/02/14 08:25:57;;;;;;;13.38;7.97;;;;;;;2.43;61.05;100279.64;1815322;77;21040;-36
2022/02/14 08:28:24;;;;;;;12.55;7.58;;;;;;;2.57;60.73;100296.62;1810731;77;21140;-36
2022/02/14 08:30:52;;;;;;;16.07;7.62;;;;;;;2.66;60.64;100293.61;1792654;77;21003;-36
2022/02/14 08:33:18;;;;;;;12.43;6.90;;;;;;;2.72;59.75;100301.83;1804207;77;21030;-36
2022/02/14 08:35:45;;;;;;;13.32;7.55;;;;;;;2.80;59.18;100293.73;1805357;77;21013;-36
2022/02/14 08:38:13;;;;;;;11.08;7.20;;;;;;;2.85;58.84;100298.48;1812284;79;20957;-36
2022/02/14 08:40:39;;;;;;;22.37;13.00;;;;;;;2.92;58.48;100290.89;1797624;79;21129;-36
2022/02/14 08:43:06;;;;;;;14.98;9.80;;;;;;;2.98;58.11;100298.33;1812374;78;21535;-36
2022/02/14 08:45:32;;;;;;;16.52;9.90;;;;;;;3.10;58.12;100300.61;1811028;78;20964;-36
2022/02/14 08:47:59;;;;;;;16.57;9.33;;;;;;;3.20;58.52;100306.61;1807451;79;20927;-36
2022/02/14 08:50:26;;;;;;;15.38;9.58;;;;;;;3.33;58.31;100297.09;1804400;78;21083;-36
2022/02/14 08:52:53;;;;;;;15.78;9.48;;;;;;;3.44;56.87;100301.20;1800136;78;21538;-36
2022/02/14 08:55:21;;;;;;;13.38;9.60;;;;;;;3.46;56.62;100299.05;1804719;78;20963;-36
2022/02/14 08:57:47;;;;;;;10.72;7.62;;;;;;;3.45;56.59;100300.12;1805546;77;20984;-36
2022/02/14 09:00:15;;;;;;;24.18;13.00;;;;;;;3.48;56.82;100304.93;1812724;77;20961;-36
2022/02/14 09:02:44;;;;;;;29.12;13.20;;;;;;;3.61;56.17;100307.42;1801958;79;20990;-36
2022/02/14 09:05:10;;;;;;;19.02;9.35;;;;;;;3.69;56.33;100300.05;1816248;77;21102;-36
2022/02/14 09:07:37;;;;;;;23.87;12.47;;;;;;;3.77;55.97;100298.88;1806690;77;21279;-36
2022/02/14 09:10:05;;;;;;;27.48;13.00;;;;;;;3.91;56.07;100297.59;1824914;77;20961;-36
2022/02/14 09:12:33;;;;;;;;;;;;;;;4.03;54.78;100300.60;1812870;79;20938;-36
2022/02/14 09:15:00;;;;;;;15.20;7.85;;;;;;;4.05;54.45;100294.95;1787604;78;20266;-36
2022/02/14 09:17:27;;;;;;;35.98;16.07;;;;;;;3.96;54.99;100296.17;1780999;79;21131;-36
2022/02/14 09:19:53;;;;;;;19.15;10.48;;;;;;;4.02;55.07;100294.98;1781891;79;20890;-36
2022/02/14 09:22:20;;;;;;;25.20;12.65;;;;;;;4.11;54.65;100296.47;1781462;78;20960;-36
2022/02/14 09:24:48;;;;;;;21.60;10.65;;;;;;;4.16;53.87;100307.12;1777743;78;20985;-36
2022/02/14 09:27:16;;;;;;;38.25;17.77;;;;;;;4.20;54.12;100296.84;1747906;80;21122;-36
2022/02/14 09:29:44;;;;;;;21.73;10.08;;;;;;;4.25;53.57;100290.05;1780292;78;21008;-36
2022/02/14 09:32:11;;;;;;;50.98;22.27;;;;;;;4.32;53.29;100296.36;1796457;78;20966;-36
2022/02/14 09:34:37;;;;;;;24.75;12.50;;;;;;;4.32;53.30;100286.97;1764124;78;21502;-36
2022/02/14 09:37:04;;;;;;;51.02;23.20;;;;;;;4.40;53.10;100295.70;1771867;78;20983;-36
2022/02/14 09:39:30;;;;;;;27.13;12.55;;;;;;;4.47;53.36;100293.41;1783213;78;21771;-36
2022/02/14 09:41:59;;;;;;;59.08;24.32;;;;;;;4.55;52.61;100290.03;1776874;78;21193;-36
2022/02/14 09:44:27;;;;;;;46.70;21.00;;;;;;;4.65;52.54;100293.08;1773740;79;20969;-36
2022/02/14 09:46:55;;;;;;;42.53;19.77;;;;;;;4.67;52.49;100278.28;1772249;80;20989;-36
2022/02/14 09:49:22;;;;;;;22.32;12.23;;;;;;;4.73;52.85;100281.67;1779266;79;21081;-36
2022/02/14 09:51:56;;;;;;;53.80;30.08;;;;;;;4.84;52.47;100281.73;1775626;78;21095;-36
2022/02/14 09:54:24;;;;;;;21.15;14.68;;;;;;;4.97;52.82;100277.44;1788109;79;21119;-36
2022/02/14 09:56:51;;;;;;;17.67;10.95;;;;;;;5.04;52.08;100281.84;1766229;78;20976;-36
2022/02/14 09:59:17;;;;;;;21.52;12.93;;;;;;;5.06;51.84;100276.97;1777967;78;21853;-37
2022/02/14 10:01:45;;;;;;;13.62;9.88;;;;;;;5.09;51.50;100266.95;1767251;80;21045;-36
2022/02/14 10:04:11;;;;;;;20.40;12.25;;;;;;;5.18;51.15;100273.24;1789032;78;21045;-36
2022/02/14 10:06:41;;;;;;;12.20;7.67;;;;;;;5.31;50.75;100279.68;1767868;78;21170;-36
2022/02/14 10:09:22;;;;;;;13.62;7.55;;;;;;;5.37;49.65;100273.91;1798345;78;20953;-36
2022/02/14 10:12:02;;;;;;;10.70;6.10;;;;;;;5.40;50.01;100269.80;1781018;80;21068;-36
2022/02/14 10:14:29;;;;;;;10.30;5.92;;;;;;;5.41;49.75;100265.47;1788393;79;21017;-37
2022/02/14 10:17:18;;;;;;;9.55;5.35;;;;;;;5.45;49.15;100273.17;1806327;78;21075;-37
2022/02/14 10:19:58;;;;;;;8.73;5.67;;;;;;;5.48;49.38;100275.25;1798870;78;20973;-36
2022/02/14 10:22:25;;;;;;;9.95;5.40;;;;;;;5.54;49.74;100257.91;1803897;78;21475;-37
2022/02/14 10:24:52;;;;;;;9.90;6.17;;;;;;;5.62;49.57;100249.10;1791110;78;21004;-36
2022/02/14 10:27:32;;;;;;;9.05;5.25;;;;;;;5.73;49.44;100251.55;1818474;78;21049;-36
2022/02/14 10:30:11;;;;;;;10.25;5.40;;;;;;;5.85;48.77;100253.16;1780005;78;21366;-36
2022/02/14 10:32:51;;;;;;;10.58;5.45;;;;;;;5.90;48.76;100249.03;1800687;78;21102;-36
2022/02/14 10:35:19;;;;;;;8.50;5.40;;;;;;;5.93;48.71;100241.69;1796048;78;21001;-36
2022/02/14 10:37:46;;;;;;;12.07;5.83;;;;;;;6.01;48.77;100248.47;1803959;78;21012;-36
2022/02/14 10:40:30;;;;;;;11.43;5.72;;;;;;;6.10;48.10;100239.88;1802467;78;21000;-36
2022/02/14 10:42:58;;;;;;;8.25;4.83;;;;;;;6.22;48.03;100240.67;1800955;78;21036;-37
2022/02/14 10:45:25;;;;;;;7.55;4.72;;;;;;;6.28;47.38;100241.34;1801569;78;21540;-36
2022/02/14 10:47:51;;;;;;;8.28;5.25;;;;;;;6.32;47.02;100237.72;1801487;78;21035;-36
2022/02/14 10:50:23;;;;;;;8.40;4.92;;;;;;;6.34;46.85;100226.65;1799473;78;21478;-37
2022/02/14 10:52:55;;;;;;;7.87;4.80;;;;;;;6.32;45.48;100239.06;1799720;78;21028;-37
2022/02/14 10:55:37;;;;;;;9.40;5.45;;;;;;;6.32;46.22;100234.23;1797242;78;21001;-37
2022/02/14 10:58:03;;;;;;;10.70;6.50;;;;;;;6.36;47.25;100244.08;1793746;78;21142;-36
2022/02/14 11:00:36;;;;;;;9.90;6.08;;;;;;;6.41;47.67;100237.75;1798249;78;20996;-36
2022/02/14 11:03:06;;;;;;;10.95;6.47;;;;;;;6.43;47.91;100245.78;1800766;78;20992;-36
2022/02/14 11:05:33;;;;;;;10.10;6.70;;;;;;;6.50;47.98;100242.08;1803772;78;20949;-36
2022/02/14 11:08:01;;;;;;;11.48;6.33;;;;;;;6.60;47.76;100245.59;1802410;78;21051;-36
2022/02/14 11:10:28;;;;;;;9.10;6.17;;;;;;;6.65;47.37;100241.42;1786532;78;21127;-36
2022/02/14 11:12:58;;;;;;;9.28;6.85;;;;;;;6.73;47.46;100241.44;1797950;78;20963;-36
2022/02/14 11:15:32;;;;;;;11.08;6.33;;;;;;;6.83;47.04;100239.81;1812602;78;20953;-36
2022/02/14 11:18:08;;;;;;;10.72;6.37;;;;;;;6.86;46.58;100231.12;1807632;77;21142;-37
2022/02/14 11:20:35;;;;;;;13.55;7.65;;;;;;;6.89;46.13;100226.98;1780609;79;21024;-36
2022/02/14 11:23:03;;;;;;;9.95;5.95;;;;;;;6.88;46.14;100218.66;1782205;79;21073;-37